Time;durP1;ratioP1;P1;durP2;ratioP2;P2;SDS_P1;SDS_P2;PMS_P1;PMS_P2;Temp;Humidity;BMP_temperature;BMP_pressure;BME280_temperature;BME280_humidity;BME280_pressure;Samples;Min_cycle;Max_cycle;Signal;HPM_P1;HPM_P2
2022/06/13 00:01:09;;;;;;;8.40;2.72;;;;;;;15.56;55.95;100758.84;10384597;28;20037;-79
2022/06/13 00:06:14;;;;;;;7.03;2.83;;;;;;;15.10;56.95;100757.78;10392699;28;20108;-77
2022/06/13 00:11:23;;;;;;;10.55;3.15;;;;;;;15.00;57.63;100758.66;10391337;28;20504;-78
2022/06/13 00:16:27;;;;;;;7.75;2.92;;;;;;;15.06;57.63;100746.41;10400221;28;20053;-78
2022/06/13 00:21:35;;;;;;;7.68;3.30;;;;;;;14.41;59.78;100764.22;10402191;28;20199;-78
2022/06/13 00:26:38;;;;;;;9.55;3.03;;;;;;;14.47;59.53;100769.88;10385863;28;20034;-78
2022/06/13 00:31:41;;;;;;;9.07;3.10;;;;;;;14.01;60.78;100763.22;10385833;28;20061;-78
2022/06/13 00:36:46;;;;;;;9.88;2.97;;;;;;;14.55;59.50;100774.59;10376478;28;20045;-79
2022/06/13 00:41:49;;;;;;;13.25;3.65;;;;;;;14.52;59.30;100770.31;10378580;28;20100;-80
2022/06/13 00:46:53;;;;;;;11.15;2.70;;;;;;;14.71;58.69;100761.38;10361625;28;20105;-79
2022/06/13 00:52:03;;;;;;;6.72;3.50;;;;;;;14.86;58.87;100752.81;10357516;28;20049;-79
2022/06/13 00:57:09;;;;;;;6.30;3.00;;;;;;;14.96;58.14;100748.28;10364005;28;20060;-79
2022/06/13 01:02:12;;;;;;;8.85;3.25;;;;;;;14.97;57.97;100731.88;10362067;28;20498;-79
2022/06/13 01:07:18;;;;;;;7.63;3.10;;;;;;;14.90;57.46;100729.91;10349060;28;20046;-79
2022/06/13 01:12:21;;;;;;;10.30;3.53;;;;;;;14.93;57.66;100726.91;10353977;28;20057;-80
2022/06/13 01:17:40;;;;;;;8.32;3.28;;;;;;;14.96;57.82;100729.34;10353801;28;20057;-78
2022/06/13 01:23:07;;;;;;;8.52;3.35;;;;;;;14.77;58.30;100714.81;10361346;28;20112;-78
2022/06/13 01:28:33;;;;;;;10.82;4.18;;;;;;;14.14;59.84;100726.00;10356715;28;20061;-78
2022/06/13 01:33:47;;;;;;;11.15;3.80;;;;;;;13.18;63.13;100735.41;10355004;28;20077;-79
2022/06/13 01:39:09;;;;;;;9.07;3.88;;;;;;;13.36;62.89;100741.03;10360709;28;20507;-79
2022/06/13 01:44:18;;;;;;;9.98;3.88;;;;;;;13.18;63.31;100740.78;10357529;28;20057;-79
2022/06/13 01:49:30;;;;;;;8.07;4.03;;;;;;;13.15;63.71;100748.31;10366330;28;20045;-78
2022/06/13 01:54:43;;;;;;;8.70;4.30;;;;;;;13.30;62.89;100760.44;10358869;28;20077;-80
2022/06/13 01:59:54;;;;;;;;;;;;;;;13.15;62.98;100751.00;10358199;28;20113;-80
2022/06/13 02:05:05;;;;;;;9.13;4.53;;;;;;;13.41;62.64;100752.34;10383746;28;19925;-79
2022/06/13 02:10:14;;;;;;;9.70;4.10;;;;;;;13.61;61.78;100747.03;10354737;28;20496;-80
2022/06/13 02:15:23;;;;;;;12.05;4.00;;;;;;;13.75;61.22;100748.50;10362475;28;20107;-78
2022/06/13 02:20:32;;;;;;;7.70;3.42;;;;;;;13.77;60.99;100747.38;10357307;28;20046;-79
2022/06/13 02:25:43;;;;;;;8.15;4.03;;;;;;;13.62;61.55;100741.47;10355490;28;20679;-79
2022/06/13 02:30:51;;;;;;;9.80;3.90;;;;;;;13.87;60.87;100720.38;10356037;28;20387;-79
2022/06/13 02:36:00;;;;;;;11.57;3.80;;;;;;;13.98;60.60;100725.69;10356547;28;20140;-79
2022/06/13 02:41:08;;;;;;;9.43;3.80;;;;;;;13.92;60.52;100731.63;10381327;28;20042;-78
2022/06/13 02:46:22;;;;;;;10.32;3.72;;;;;;;13.79;60.74;100731.88;10390862;28;20160;-79
2022/06/13 02:51:34;;;;;;;8.57;3.95;;;;;;;13.15;62.22;100745.59;10378798;28;20056;-80
2022/06/13 03:02:08;;;;;;;12.02;4.65;;;;;;;13.11;63.28;100752.22;10359742;28;20107;-78
2022/06/13 03:07:20;;;;;;;12.15;3.97;;;;;;;12.55;64.94;100754.22;10364459;28;21368;-79
2022/06/13 03:12:32;;;;;;;13.00;4.33;;;;;;;12.72;64.64;100760.03;10361972;28;20037;-79
2022/06/13 03:17:40;;;;;;;9.68;4.13;;;;;;;12.75;64.82;100765.16;10364953;28;20046;-79
2022/06/13 03:22:49;;;;;;;10.35;4.88;;;;;;;12.84;64.57;100756.31;10369899;28;20053;-79
2022/06/13 03:27:57;;;;;;;9.65;3.92;;;;;;;12.71;64.70;100763.72;10357650;28;20065;-79
2022/06/13 03:38:34;;;;;;;9.93;4.13;;;;;;;13.24;63.42;100729.47;10369106;28;21553;-79
2022/06/13 03:43:44;;;;;;;11.50;4.32;;;;;;;13.61;62.96;100745.19;10384813;28;20053;-80
2022/06/13 03:48:52;;;;;;;9.95;4.05;;;;;;;13.64;61.93;100752.16;10360609;28;20045;-77
2022/06/13 03:54:02;;;;;;;9.07;4.22;;;;;;;13.54;62.10;100757.50;10372611;28;20050;-79
2022/06/13 03:59:08;;;;;;;14.88;4.68;;;;;;;13.14;64.13;100763.63;10361325;28;20053;-80
2022/06/13 04:04:18;;;;;;;14.93;5.20;;;;;;;13.27;64.25;100791.28;10352093;28;20100;-80
2022/06/13 04:09:25;;;;;;;11.23;4.88;;;;;;;12.94;68.50;100800.38;10366597;28;20153;-77
2022/06/13 04:14:45;;;;;;;11.77;5.18;;;;;;;12.22;71.82;100797.41;10388753;28;20109;-78
2022/06/13 04:20:02;;;;;;;15.02;5.57;;;;;;;11.75;73.49;100802.94;10371508;28;20053;-79
2022/06/13 04:25:17;;;;;;;17.75;6.70;;;;;;;12.12;74.99;100798.16;10361696;28;20116;-79
2022/06/13 04:30:22;;;;;;;17.98;7.18;;;;;;;12.45;75.47;100777.56;10366228;28;20107;-79
2022/06/13 04:35:26;;;;;;;16.70;5.72;;;;;;;12.67;75.48;100771.22;10373100;28;20062;-79
2022/06/13 04:40:33;;;;;;;13.63;6.28;;;;;;;12.72;76.17;100766.28;10363358;28;20530;-78
2022/06/13 04:45:46;;;;;;;13.38;5.63;;;;;;;12.91;77.17;100757.50;10356353;28;20141;-79
2022/06/13 04:50:51;;;;;;;13.50;6.30;;;;;;;12.77;76.10;100753.28;10355641;28;20053;-78
2022/06/13 04:55:59;;;;;;;15.02;6.75;;;;;;;12.75;76.85;100751.69;10350069;28;20085;-80
2022/06/13 05:01:06;;;;;;;15.20;6.80;;;;;;;12.64;74.85;100766.06;10350495;28;20050;-79
2022/06/13 05:06:21;;;;;;;12.23;5.63;;;;;;;12.47;74.67;100772.88;10348612;28;20057;-78
2022/06/13 05:11:30;;;;;;;14.73;5.95;;;;;;;12.84;75.41;100777.88;10355255;28;20756;-78
2022/06/13 05:16:47;;;;;;;12.75;5.75;;;;;;;12.76;75.11;100772.28;10354070;28;20124;-79
2022/06/13 05:22:00;;;;;;;16.08;6.55;;;;;;;12.97;74.83;100765.09;10359490;28;20065;-79
2022/06/13 05:27:08;;;;;;;10.95;5.53;;;;;;;13.25;75.66;100777.06;10354982;28;20503;-79
2022/06/13 05:32:13;;;;;;;9.93;6.30;;;;;;;13.26;74.35;100784.16;10352863;28;20170;-80
2022/06/13 05:37:17;;;;;;;18.17;6.47;;;;;;;13.42;73.91;100783.72;10357098;28;20216;-79
2022/06/13 05:42:22;;;;;;;14.02;5.97;;;;;;;13.54;74.58;100781.78;10359112;28;20053;-78
2022/06/13 05:47:24;;;;;;;13.05;6.20;;;;;;;13.73;73.82;100786.41;10360032;28;20042;-79
2022/06/13 05:52:27;;;;;;;13.52;6.55;;;;;;;13.74;72.38;100793.56;10357942;28;20049;-78
2022/06/13 05:57:32;;;;;;;11.98;5.35;;;;;;;13.92;71.14;100791.91;10358978;28;20669;-77
2022/06/13 06:02:35;;;;;;;9.30;3.90;;;;;;;14.08;69.33;100791.41;10365849;28;20065;-78
2022/06/13 06:07:39;;;;;;;7.05;4.10;;;;;;;13.89;68.38;100799.44;10360396;28;20053;-78
2022/06/13 06:12:43;;;;;;;10.27;3.92;;;;;;;13.91;67.43;100805.56;10365909;28;20049;-77
2022/06/13 06:17:46;;;;;;;7.55;3.85;;;;;;;13.67;66.85;100805.88;10399909;28;20037;-77
2022/06/13 06:22:50;;;;;;;5.22;2.45;;;;;;;14.05;66.03;100801.63;10351811;28;20471;-78
2022/06/13 06:27:54;;;;;;;4.18;2.63;;;;;;;14.03;64.52;100798.19;10389436;28;20050;-78
2022/06/13 06:32:58;;;;;;;6.57;2.97;;;;;;;14.68;62.48;100804.94;10354582;28;21316;-77
2022/06/13 06:38:01;;;;;;;4.60;2.17;;;;;;;14.74;61.46;100798.94;10351912;28;20111;-78
2022/06/13 06:43:07;;;;;;;4.55;2.50;;;;;;;15.39;61.11;100799.22;10365203;28;20123;-79
2022/06/13 06:48:13;;;;;;;4.43;2.63;;;;;;;15.66;60.09;100798.44;10342651;28;20046;-78
2022/06/13 06:53:17;;;;;;;9.25;3.08;;;;;;;14.93;59.50;100805.38;10342367;28;20053;-79
2022/06/13 07:03:43;;;;;;;8.45;2.97;;;;;;;15.67;57.54;100815.53;10360151;28;20041;-78
2022/06/13 07:08:46;;;;;;;5.80;3.10;;;;;;;15.89;57.20;100815.16;10358133;28;20049;-78
2022/06/13 07:13:50;;;;;;;6.97;2.40;;;;;;;15.96;56.70;100807.28;10377765;28;20061;-79
2022/06/13 07:18:53;;;;;;;8.20;2.58;;;;;;;17.56;55.50;100811.16;10369422;28;20053;-78
2022/06/13 07:23:56;;;;;;;7.78;2.88;;;;;;;18.12;51.41;100820.63;10365166;28;20084;-79
2022/06/13 07:29:00;;;;;;;4.80;2.53;;;;;;;17.25;53.83;100816.16;10395561;28;20940;-78
2022/06/13 07:34:04;;;;;;;6.93;2.53;;;;;;;16.71;53.76;100829.72;10416988;28;20041;-78
2022/06/13 07:39:07;;;;;;;8.70;2.65;;;;;;;16.39;53.85;100835.63;10406667;28;20533;-79
2022/06/13 07:44:19;;;;;;;6.95;2.60;;;;;;;17.13;53.41;100834.56;10404262;28;20068;-79
2022/06/13 07:49:22;;;;;;;12.47;3.67;;;;;;;17.34;53.21;100836.97;10367753;28;20097;-78
2022/06/13 07:54:25;;;;;;;10.20;3.50;;;;;;;17.82;53.08;100834.72;10375252;28;20049;-79
2022/06/13 07:59:30;;;;;;;11.75;2.90;;;;;;;18.58;50.00;100832.03;10374991;28;20053;-78
2022/06/13 08:04:33;;;;;;;8.52;3.30;;;;;;;18.20;50.23;100833.44;10363741;28;20149;-79
2022/06/13 08:09:57;;;;;;;12.90;5.22;;;;;;;17.60;52.06;100836.97;10380135;28;20056;-79
2022/06/13 08:15:01;;;;;;;9.23;3.30;;;;;;;17.56;50.83;100841.03;10372286;28;20064;-79
2022/06/13 08:20:07;;;;;;;6.10;3.30;;;;;;;17.46;52.32;100846.53;10363868;28;20092;-78
2022/06/13 08:25:17;;;;;;;9.82;3.15;;;;;;;17.62;50.89;100845.81;10368112;28;20042;-78
2022/06/13 08:30:21;;;;;;;10.40;3.35;;;;;;;16.95;53.36;100855.38;10379186;28;21577;-79
2022/06/13 08:35:26;;;;;;;9.15;3.00;;;;;;;17.95;50.67;100837.88;10359925;28;20045;-78
2022/06/13 08:40:44;;;;;;;8.77;3.05;;;;;;;17.56;49.24;100843.75;10389462;28;20046;-78
2022/06/13 08:45:53;;;;;;;7.05;2.97;;;;;;;17.71;49.09;100854.88;10361047;28;20053;-79
2022/06/13 08:51:04;;;;;;;9.45;2.70;;;;;;;17.96;49.73;100846.88;10365921;28;20054;-79
2022/06/13 08:56:10;;;;;;;8.38;2.35;;;;;;;18.27;47.64;100836.34;10379699;28;20084;-79
2022/06/13 09:01:18;;;;;;;5.90;2.00;;;;;;;17.58;48.90;100835.41;10355643;28;20057;-80
2022/06/13 09:06:26;;;;;;;8.52;2.45;;;;;;;17.30;47.47;100832.84;10346560;28;20077;-79
2022/06/13 09:11:34;;;;;;;9.23;3.20;;;;;;;17.15;48.52;100832.56;10344268;28;20132;-79
2022/06/13 09:16:43;;;;;;;13.63;3.10;;;;;;;17.90;46.08;100832.91;10361465;28;20049;-79
2022/06/13 09:21:52;;;;;;;9.05;3.42;;;;;;;18.97;46.04;100831.44;10363083;28;20124;-78
2022/06/13 09:27:02;;;;;;;8.77;2.47;;;;;;;18.73;46.81;100824.09;10350442;28;20073;-79
2022/06/13 09:32:13;;;;;;;11.70;3.72;;;;;;;19.59;45.41;100832.84;10351604;28;20608;-79
2022/06/13 09:37:24;;;;;;;12.38;3.80;;;;;;;19.56;45.20;100809.50;10376440;28;20056;-79
2022/06/13 09:42:42;;;;;;;;;;;;;;;17.53;48.49;100844.06;10359400;28;20057;-78
2022/06/13 09:47:57;;;;;;;5.53;2.75;;;;;;;17.47;47.29;100836.56;10357566;28;19933;-79
2022/06/13 09:53:07;;;;;;;8.38;3.53;;;;;;;17.37;48.51;100831.22;10368440;28;20077;-78
2022/06/13 09:58:16;;;;;;;11.63;3.58;;;;;;;18.79;46.52;100844.38;10374808;28;20079;-79
2022/06/13 10:03:32;;;;;;;4.97;2.10;;;;;;;19.93;43.08;100842.63;10378729;28;20095;-79
2022/06/13 10:08:56;;;;;;;4.32;1.83;;;;;;;19.21;44.54;100863.28;10360591;28;20049;-78
2022/06/13 10:14:21;;;;;;;6.53;2.15;;;;;;;19.09;44.00;100851.03;10363234;28;20065;-78
2022/06/13 10:19:36;;;;;;;3.50;2.03;;;;;;;18.24;45.75;100851.13;10372269;28;20065;-78
2022/06/13 10:24:51;;;;;;;3.92;1.42;;;;;;;17.08;48.69;100896.56;10380607;28;20052;-78
2022/06/13 10:30:07;;;;;;;2.92;1.10;;;;;;;16.34;49.50;100919.28;10365382;28;20049;-78
2022/06/13 10:35:22;;;;;;;2.97;0.70;;;;;;;15.91;50.70;100918.84;10370319;28;20045;-78
2022/06/13 10:40:27;;;;;;;1.38;0.85;;;;;;;15.67;52.19;100932.00;10361774;28;20058;-78
2022/06/13 10:45:30;;;;;;;1.73;0.80;;;;;;;15.77;52.87;100927.41;10355388;28;20045;-78
2022/06/13 10:50:38;;;;;;;2.03;1.08;;;;;;;15.60;51.72;100928.97;10360976;28;20504;-78
2022/06/13 10:55:43;;;;;;;2.10;0.90;;;;;;;15.96;53.42;100920.22;10315930;28;20077;-77
2022/06/13 11:01:05;;;;;;;3.15;0.88;;;;;;;14.74;63.32;100922.50;10305925;28;20208;-78
2022/06/13 11:06:18;;;;;;;2.75;1.92;;;;;;;14.68;64.96;100923.91;10351947;28;20151;-77
2022/06/13 11:11:30;;;;;;;2.00;1.35;;;;;;;16.09;60.14;100918.91;10348704;28;20158;-77
2022/06/13 11:32:41;;;;;;;3.33;1.00;;;;;;;19.89;42.84;100921.19;10372562;28;19929;-79
2022/06/13 11:37:47;;;;;;;2.38;0.77;;;;;;;20.85;41.70;100912.03;10360688;28;20054;-79
2022/06/13 11:42:53;;;;;;;4.28;1.13;;;;;;;20.30;41.70;100916.50;10355229;28;20056;-79
2022/06/13 11:47:56;;;;;;;4.03;1.33;;;;;;;20.44;41.33;100920.41;10343080;28;20061;-79
2022/06/13 11:58:26;;;;;;;1.88;0.70;;;;;;;16.09;47.62;100980.38;10368032;28;20061;-78
2022/06/13 12:03:29;;;;;;;3.20;0.60;;;;;;;15.37;52.24;100973.59;10368588;28;20037;-78
2022/06/13 12:08:34;;;;;;;1.38;0.70;;;;;;;13.91;53.38;100989.19;10361530;28;20603;-78
2022/06/13 12:13:40;;;;;;;3.92;0.80;;;;;;;12.87;61.84;100987.94;10388981;28;20049;-79
2022/06/13 12:18:52;;;;;;;0.80;0.60;;;;;;;12.53;61.42;100982.56;10380964;28;20045;-78
2022/06/13 12:24:04;;;;;;;1.38;1.20;;;;;;;13.13;62.13;100971.44;10374576;28;20049;-78
2022/06/13 12:29:24;;;;;;;3.08;0.77;;;;;;;13.73;60.46;100971.84;10375401;28;20045;-79
2022/06/13 12:34:37;;;;;;;3.40;0.73;;;;;;;13.93;56.41;100968.28;10366705;28;20045;-78
2022/06/13 12:39:47;;;;;;;;;;;;;;;14.56;54.16;100960.13;10351961;28;21536;-79
2022/06/13 12:45:31;;;;;;;2.63;0.95;;;;;;;15.21;53.40;100964.16;10366958;28;19932;-79
2022/06/13 12:50:51;;;;;;;2.58;0.55;;;;;;;16.96;47.73;100950.22;10361045;28;20684;-78
2022/06/13 12:56:03;;;;;;;3.47;0.75;;;;;;;19.38;45.38;100939.56;10363764;28;20495;-78
2022/06/13 13:01:14;;;;;;;4.03;0.80;;;;;;;21.10;41.99;100934.63;10373222;28;20058;-77
2022/06/13 13:06:29;;;;;;;2.75;1.00;;;;;;;22.04;40.82;100929.75;10345700;28;20443;-78
2022/06/13 13:11:50;;;;;;;2.28;0.82;;;;;;;22.11;38.33;100927.16;10353880;28;20057;-78
2022/06/13 13:17:00;;;;;;;2.35;0.90;;;;;;;21.75;38.57;100933.31;10355640;28;20108;-79
2022/06/13 13:22:11;;;;;;;1.67;0.88;;;;;;;21.04;41.38;100935.34;10365554;28;20045;-79
2022/06/13 13:27:18;;;;;;;2.10;1.00;;;;;;;21.11;40.45;100940.91;10359707;28;20376;-79
2022/06/13 13:32:33;;;;;;;1.63;0.80;;;;;;;21.57;39.89;100941.78;10361664;28;20034;-78
2022/06/13 13:37:41;;;;;;;2.35;0.75;;;;;;;20.35;41.86;100940.56;10368426;28;20061;-79
2022/06/13 13:42:52;;;;;;;3.22;0.98;;;;;;;19.99;42.38;100948.28;10364841;28;20046;-78
2022/06/13 13:48:01;;;;;;;3.55;1.10;;;;;;;20.66;41.30;100940.63;10363595;28;20080;-79
2022/06/13 13:53:10;;;;;;;2.25;0.80;;;;;;;22.24;38.77;100927.34;10359970;28;20069;-78
2022/06/13 13:58:20;;;;;;;4.35;1.45;;;;;;;23.25;37.08;100924.00;10359524;28;20100;-78
2022/06/13 14:03:33;;;;;;;4.78;1.50;;;;;;;20.69;39.50;100921.16;10371429;28;21299;-77
2022/06/13 14:08:38;;;;;;;4.15;1.05;;;;;;;21.64;39.38;100920.06;10345240;28;20048;-79
2022/06/13 14:13:44;;;;;;;2.92;0.80;;;;;;;22.83;35.96;100912.75;10361694;28;20045;-77
2022/06/13 14:18:58;;;;;;;3.30;1.33;;;;;;;24.51;35.74;100906.66;10368680;28;20053;-77
2022/06/13 14:24:08;;;;;;;4.10;1.02;;;;;;;24.00;35.38;100934.41;10375331;28;20053;-78
2022/06/13 14:29:16;;;;;;;3.25;1.05;;;;;;;22.84;37.19;100919.09;10338755;28;20053;-77
2022/06/13 14:40:10;;;;;;;1.33;0.75;;;;;;;22.88;33.40;100912.19;10354034;28;20065;-78
2022/06/13 14:45:21;;;;;;;2.85;0.70;;;;;;;23.10;33.50;100918.56;10367308;28;20049;-77
2022/06/13 14:50:49;;;;;;;2.03;0.80;;;;;;;24.26;33.14;100928.25;10376872;28;20053;-78
2022/06/13 14:56:25;;;;;;;4.80;1.00;;;;;;;24.13;33.54;100938.28;10382978;28;20060;-78
2022/06/13 15:01:32;;;;;;;4.97;0.90;;;;;;;21.78;36.08;100937.56;10365179;28;20068;-78
2022/06/13 15:06:38;;;;;;;4.75;1.33;;;;;;;21.36;36.87;100945.19;10362342;28;20076;-76
2022/06/13 15:11:45;;;;;;;5.30;1.05;;;;;;;22.86;36.14;100917.84;10374983;28;20057;-76
2022/06/13 15:16:52;;;;;;;5.13;1.20;;;;;;;23.62;33.77;100937.44;10350010;28;20111;-76
2022/06/13 15:22:00;;;;;;;4.63;1.05;;;;;;;22.87;35.68;100944.19;10343459;28;20050;-78
2022/06/13 15:27:06;;;;;;;4.90;1.35;;;;;;;20.96;37.84;100955.31;10352930;28;20058;-79
2022/06/13 15:32:26;;;;;;;4.60;0.98;;;;;;;20.12;39.71;100963.06;10361092;28;20046;-78
2022/06/13 15:37:34;;;;;;;5.05;1.10;;;;;;;19.13;40.91;100944.13;10362142;28;20131;-79
2022/06/13 15:42:40;;;;;;;3.10;0.82;;;;;;;22.80;35.00;100945.19;10361609;28;20147;-77
2022/06/13 15:47:47;;;;;;;4.05;0.90;;;;;;;21.92;35.39;100960.50;10374011;28;20053;-77
2022/06/13 15:52:51;;;;;;;5.22;0.80;;;;;;;22.90;33.70;100956.66;10360163;28;20053;-77
2022/06/13 15:57:57;;;;;;;4.38;1.08;;;;;;;22.79;34.40;100952.56;10358398;28;20135;-78
2022/06/13 16:03:06;;;;;;;4.05;0.82;;;;;;;22.75;33.19;100957.53;10359470;28;20046;-78
2022/06/13 16:08:15;;;;;;;4.18;1.23;;;;;;;22.77;33.57;100947.25;10367821;28;20042;-78
2022/06/13 16:13:23;;;;;;;3.33;1.00;;;;;;;22.82;33.37;100954.03;10373901;28;20064;-77
2022/06/13 16:18:34;;;;;;;4.00;1.10;;;;;;;24.71;31.69;100945.22;10375730;28;20053;-78
2022/06/13 16:23:42;;;;;;;2.15;0.80;;;;;;;23.16;31.59;100946.06;10355451;28;20186;-78
2022/06/13 16:28:45;;;;;;;4.18;1.27;;;;;;;21.84;34.80;100958.69;10361432;28;20108;-77
2022/06/13 16:33:52;;;;;;;3.80;1.30;;;;;;;22.46;34.02;100952.94;10355742;28;20085;-78
2022/06/13 16:38:55;;;;;;;6.57;1.13;;;;;;;21.64;36.96;100969.25;10376965;28;20057;-78
2022/06/13 16:44:01;;;;;;;3.70;1.23;;;;;;;24.76;32.61;100961.06;10353123;28;20144;-78
2022/06/13 16:49:06;;;;;;;5.65;1.17;;;;;;;29.11;27.91;100952.53;10363199;28;20064;-80
2022/06/13 16:54:11;;;;;;;7.20;1.40;;;;;;;31.44;24.39;100946.31;10360615;28;20096;-80
2022/06/13 16:59:22;;;;;;;3.67;0.93;;;;;;;31.47;24.14;100945.81;10368905;28;20061;-80
2022/06/13 17:04:36;;;;;;;2.93;0.90;;;;;;;30.12;26.05;100956.28;10346289;28;20145;-78
2022/06/13 17:09:59;;;;;;;3.80;1.10;;;;;;;31.50;24.60;100963.91;10382770;28;20049;-79
2022/06/13 17:15:22;;;;;;;4.05;1.00;;;;;;;29.75;25.63;100975.84;10360127;28;20057;-79
2022/06/13 17:20:29;;;;;;;3.47;0.77;;;;;;;26.33;30.47;100970.94;10356741;28;20050;-78
2022/06/13 17:32:06;;;;;;;4.63;1.17;;;;;;;27.02;28.70;100965.84;10359899;28;20072;-79
2022/06/13 17:36:18;;;;;;;3.45;1.20;;;;;;;21.11;35.54;100987.34;10355306;28;20063;-79
2022/06/13 17:41:21;;;;;;;3.28;1.25;;;;;;;19.42;38.46;100987.25;10352236;28;20049;-78
2022/06/13 17:46:24;;;;;;;2.15;1.13;;;;;;;20.81;37.09;100989.00;10349397;28;20072;-78
2022/06/13 17:51:29;;;;;;;9.23;1.50;;;;;;;20.75;37.40;100985.09;10352757;28;20049;-79
2022/06/13 17:56:34;;;;;;;3.83;1.20;;;;;;;19.78;38.47;100992.44;10350928;28;20135;-80
2022/06/13 18:01:38;;;;;;;3.88;1.20;;;;;;;20.24;39.04;100989.97;10347141;28;20484;-80
2022/06/13 18:06:43;;;;;;;4.18;1.30;;;;;;;20.46;38.20;100989.31;10354603;28;20057;-79
2022/06/13 18:11:46;;;;;;;6.38;1.30;;;;;;;19.88;39.20;100998.53;10358860;28;20116;-79
2022/06/13 18:16:49;;;;;;;5.07;1.20;;;;;;;18.82;41.43;101009.19;10352350;28;20045;-79
2022/06/13 18:21:55;;;;;;;6.30;1.40;;;;;;;18.88;41.31;101009.38;10344541;28;20077;-79
2022/06/13 18:27:05;;;;;;;4.57;1.70;;;;;;;17.85;42.65;101022.78;10337339;28;20515;-80
2022/06/13 18:32:08;;;;;;;5.72;1.20;;;;;;;18.06;42.50;101027.06;10363917;28;21273;-78
2022/06/13 18:37:13;;;;;;;5.18;1.65;;;;;;;17.22;43.94;101020.09;10346043;28;20073;-78
2022/06/13 18:42:19;;;;;;;4.72;1.08;;;;;;;17.77;44.08;101028.16;10359166;28;20097;-79
2022/06/13 18:47:25;;;;;;;8.00;1.08;;;;;;;17.65;44.08;101026.66;10359508;28;20870;-78
2022/06/13 18:52:35;;;;;;;7.63;1.52;;;;;;;17.22;45.27;101033.66;10361958;28;20056;-78
2022/06/13 18:57:38;;;;;;;4.25;1.45;;;;;;;17.43;45.47;101028.81;10377846;28;20058;-80
2022/06/13 19:02:45;;;;;;;4.07;1.27;;;;;;;17.31;45.24;101030.06;10361070;28;20045;-78
2022/06/13 19:07:49;;;;;;;6.00;1.33;;;;;;;17.00;46.24;101030.34;10343617;28;20518;-79
2022/06/13 19:12:55;;;;;;;3.95;0.90;;;;;;;16.98;46.85;101039.66;10361703;28;20053;-80
2022/06/13 19:17:58;;;;;;;6.78;1.45;;;;;;;16.94;46.96;101038.22;10352587;28;20061;-79
2022/06/13 19:23:03;;;;;;;5.72;1.17;;;;;;;16.70;47.63;101042.34;10353757;28;20429;-79
2022/06/13 19:28:08;;;;;;;4.10;1.65;;;;;;;16.63;47.87;101053.91;10369556;28;20053;-79
2022/06/13 19:33:12;;;;;;;4.85;1.30;;;;;;;16.58;48.07;101049.78;10373585;28;20037;-79
2022/06/13 19:38:18;;;;;;;10.15;1.52;;;;;;;16.51;48.40;101059.53;10386224;28;20037;-79
2022/06/13 19:43:24;;;;;;;5.63;1.35;;;;;;;16.37;48.73;101054.53;10336125;28;20511;-79
2022/06/13 19:48:28;;;;;;;2.97;1.40;;;;;;;16.21;49.21;101065.97;10357698;28;20050;-80
2022/06/13 19:53:32;;;;;;;3.45;1.15;;;;;;;16.09;49.67;101067.97;10376877;28;20042;-79
2022/06/13 19:58:37;;;;;;;6.43;1.42;;;;;;;15.86;49.92;101066.56;10374310;28;20057;-79
2022/06/13 20:03:40;;;;;;;6.43;1.33;;;;;;;15.79;50.05;101068.09;10377743;28;20513;-79
2022/06/13 20:08:45;;;;;;;3.75;1.38;;;;;;;15.71;51.37;101074.22;10365885;28;20499;-78
2022/06/13 20:13:50;;;;;;;4.40;1.40;;;;;;;15.47;51.26;101078.19;10357107;28;20088;-79
2022/06/13 20:19:01;;;;;;;3.70;1.58;;;;;;;15.49;52.15;101080.75;10356123;28;20069;-77
2022/06/13 20:24:11;;;;;;;6.20;1.50;;;;;;;15.32;52.83;101084.97;10384849;28;20045;-78
2022/06/13 20:29:15;;;;;;;5.40;1.35;;;;;;;15.24;52.59;101088.34;10362601;28;20081;-77
2022/06/13 20:34:22;;;;;;;4.38;1.55;;;;;;;15.19;52.91;101089.75;10373660;28;20183;-77
2022/06/13 20:39:32;;;;;;;5.35;2.10;;;;;;;14.91;52.90;101099.47;10366327;28;20127;-78
2022/06/13 20:44:38;;;;;;;5.70;1.42;;;;;;;14.67;53.69;101108.75;10393707;28;20122;-78
2022/06/13 20:49:44;;;;;;;6.63;2.03;;;;;;;14.60;54.05;101104.88;10350318;28;20061;-78
2022/06/13 20:54:49;;;;;;;4.65;1.63;;;;;;;14.66;54.28;101107.03;10356678;28;20049;-78
2022/06/13 20:59:51;;;;;;;8.13;1.92;;;;;;;14.65;53.64;101108.03;10358129;28;20063;-79
2022/06/13 21:04:55;;;;;;;3.45;1.50;;;;;;;14.62;53.89;101118.25;10380436;28;20049;-77
2022/06/13 21:10:13;;;;;;;13.68;2.28;;;;;;;14.62;54.17;101115.53;10359720;28;20430;-77
2022/06/13 21:15:19;;;;;;;3.55;1.35;;;;;;;14.49;54.68;101115.75;10345685;28;20053;-78
2022/06/13 21:20:24;;;;;;;3.13;1.50;;;;;;;14.59;54.34;101111.28;10364551;28;20058;-78
2022/06/13 21:25:33;;;;;;;8.93;1.98;;;;;;;14.41;54.94;101119.13;10369672;28;20128;-78
2022/06/13 21:30:38;;;;;;;5.18;1.58;;;;;;;14.17;55.08;101108.53;10367708;28;20716;-78
2022/06/13 21:35:41;;;;;;;5.80;2.00;;;;;;;14.01;55.33;101106.25;10356544;28;20113;-78
2022/06/13 21:40:50;;;;;;;2.28;1.42;;;;;;;14.05;55.31;101115.81;10349444;28;20069;-78
2022/06/13 21:45:53;;;;;;;6.53;1.90;;;;;;;13.85;55.60;101117.50;10380200;28;20057;-78
2022/06/13 21:50:56;;;;;;;4.57;1.80;;;;;;;13.66;56.06;101120.88;10360307;28;20530;-77
2022/06/13 21:56:05;;;;;;;5.30;2.00;;;;;;;13.73;55.97;101123.91;10382508;28;20052;-77
2022/06/13 22:01:11;;;;;;;6.63;1.92;;;;;;;13.72;56.08;101122.22;10380864;28;20053;-78
2022/06/13 22:06:14;;;;;;;4.82;2.08;;;;;;;13.58;56.34;101114.41;10341084;28;20446;-78
2022/06/13 22:11:18;;;;;;;5.68;1.70;;;;;;;13.40;56.80;101117.59;10357738;28;20053;-79
2022/06/13 22:16:21;;;;;;;5.43;1.83;;;;;;;13.29;57.49;101122.97;10363629;28;20060;-78
2022/06/13 22:21:24;;;;;;;4.60;1.58;;;;;;;13.43;57.20;101132.69;10363868;28;20143;-78
2022/06/13 22:26:28;;;;;;;3.10;1.70;;;;;;;13.43;57.06;101132.69;10353966;28;20050;-78
2022/06/13 22:31:31;;;;;;;6.18;1.60;;;;;;;13.27;57.44;101119.53;10345858;28;20077;-78
2022/06/13 22:36:37;;;;;;;5.75;1.65;;;;;;;13.31;57.68;101123.72;10369339;28;20542;-77
2022/06/13 22:41:41;;;;;;;4.25;1.83;;;;;;;13.31;57.65;101128.25;10357025;28;20100;-79
2022/06/13 22:52:06;;;;;;;3.35;1.65;;;;;;;13.23;58.04;101135.13;10354740;28;20093;-77
2022/06/13 22:57:11;;;;;;;5.60;1.70;;;;;;;13.02;58.37;101137.69;10342674;28;20053;-78
2022/06/13 23:02:14;;;;;;;5.70;1.85;;;;;;;12.65;59.76;101142.44;10358770;28;21855;-77
2022/06/13 23:07:19;;;;;;;4.75;1.75;;;;;;;12.37;60.88;101146.41;10363199;28;20045;-77
2022/06/13 23:12:23;;;;;;;5.97;1.98;;;;;;;12.35;60.91;101140.28;10363694;28;20048;-78
2022/06/13 23:17:26;;;;;;;3.95;1.98;;;;;;;12.26;61.07;101146.31;10375696;28;20061;-78
2022/06/13 23:22:29;;;;;;;;;;;;;;;12.24;61.46;101151.00;10383137;28;20060;-78
2022/06/13 23:27:33;;;;;;;5.43;1.77;;;;;;;12.37;61.05;101141.03;10371695;28;20433;-79
2022/06/13 23:32:36;;;;;;;6.00;2.55;;;;;;;12.15;61.33;101156.09;10378661;28;20121;-78
2022/06/13 23:37:39;;;;;;;7.38;1.88;;;;;;;12.31;61.54;101138.78;10376071;28;20143;-78
2022/06/13 23:42:43;;;;;;;8.70;2.17;;;;;;;12.39;60.67;101134.53;10370309;28;20049;-78
2022/06/13 23:47:46;;;;;;;6.38;1.80;;;;;;;12.38;60.75;101142.75;10373133;28;20059;-78
2022/06/13 23:52:49;;;;;;;7.00;2.20;;;;;;;12.06;61.46;101161.31;10352578;28;20095;-79
2022/06/13 23:57:53;;;;;;;;;;;;;;;11.76;62.42;101151.00;10394295;28;20054;-78
